createdAt,value
2018-07-28T00:00:19.196Z,10.03
2018-07-28T00:02:46.959Z,9.97
2018-07-28T00:05:15.264Z,13.40
2018-07-28T00:07:42.986Z,15.43
2018-07-28T00:10:12.436Z,12.80
2018-07-28T00:12:40.670Z,15.07
2018-07-28T00:15:10.099Z,14.77
2018-07-28T00:17:38.535Z,14.87
2018-07-28T00:20:07.957Z,11.10
2018-07-28T00:22:35.610Z,11.60
2018-07-28T00:25:04.140Z,12.07
2018-07-28T00:27:32.544Z,11.30
2018-07-28T00:30:00.468Z,11.37
2018-07-28T00:32:28.646Z,11.90
2018-07-28T00:34:56.834Z,10.93
2018-07-28T00:37:24.614Z,12.87
2018-07-28T00:39:52.333Z,12.73
2018-07-28T00:42:20.049Z,14.50
2018-07-28T00:44:47.768Z,13.63
2018-07-28T00:47:15.544Z,16.60
2018-07-28T00:49:43.783Z,11.33
2018-07-28T00:52:11.687Z,13.90
2018-07-28T00:54:39.598Z,13.37
2018-07-28T00:57:07.340Z,16.40
2018-07-28T00:59:35.280Z,13.57
2018-07-28T01:02:03.074Z,14.83
2018-07-28T01:04:32.194Z,12.73
2018-07-28T01:06:59.935Z,11.87
2018-07-28T01:09:27.731Z,12.20
2018-07-28T01:11:55.495Z,13.13
2018-07-28T01:14:23.258Z,12.17
2018-07-28T01:16:51.325Z,12.10
2018-07-28T01:19:19.208Z,13.13
2018-07-28T01:21:46.983Z,13.07
2018-07-28T01:24:15.046Z,14.03
2018-07-28T01:26:42.826Z,17.10
2018-07-28T01:29:15.775Z,16.03
2018-07-28T01:31:44.270Z,12.27
2018-07-28T01:34:12.072Z,11.67
2018-07-28T01:36:39.846Z,12.50
2018-07-28T01:39:10.727Z,14.50
2018-07-28T01:41:38.435Z,18.07
2018-07-28T01:44:06.504Z,13.43
2018-07-28T01:46:34.326Z,15.70
2018-07-28T01:49:02.650Z,13.47
2018-07-28T01:51:30.467Z,12.93
2018-07-28T01:53:58.228Z,12.40
2018-07-28T01:56:26.006Z,14.40
2018-07-28T01:58:54.481Z,12.97
2018-07-28T02:01:22.221Z,14.17
2018-07-28T02:03:50.072Z,12.30
2018-07-28T02:06:17.859Z,12.97
2018-07-28T02:08:45.869Z,13.33
2018-07-28T02:11:13.910Z,16.40
2018-07-28T02:13:41.683Z,12.57
2018-07-28T02:16:09.525Z,15.33
2018-07-28T02:18:37.339Z,16.80
2018-07-28T02:21:05.067Z,13.80
2018-07-28T02:23:32.812Z,12.77
2018-07-28T02:26:00.542Z,13.80
2018-07-28T02:28:28.415Z,15.60
2018-07-28T02:30:56.773Z,14.20
2018-07-28T02:33:24.654Z,15.30
2018-07-28T02:35:52.487Z,17.47
2018-07-28T02:38:20.258Z,17.90
2018-07-28T02:40:49.072Z,12.40
2018-07-28T02:43:16.791Z,13.53
2018-07-28T02:45:44.654Z,14.43
2018-07-28T02:48:13.169Z,16.10
2018-07-28T02:50:40.937Z,12.80
2018-07-28T02:53:08.795Z,14.17
2018-07-28T02:55:36.528Z,14.23
2018-07-28T02:58:04.724Z,14.30
2018-07-28T03:00:32.853Z,14.23
2018-07-28T03:03:00.582Z,14.30
2018-07-28T03:05:28.336Z,15.53
2018-07-28T03:07:56.464Z,13.47
2018-07-28T03:10:24.259Z,15.33
2018-07-28T03:12:52.139Z,14.07
2018-07-28T03:15:35.686Z,17.03
2018-07-28T03:18:05.741Z,14.20
2018-07-28T03:20:34.828Z,15.60
2018-07-28T03:23:03.115Z,14.20
2018-07-28T03:25:31.695Z,16.27
2018-07-28T03:28:00.195Z,13.90
2018-07-28T03:30:28.463Z,15.40
2018-07-28T03:32:56.169Z,16.87
2018-07-28T03:35:24.472Z,17.90
2018-07-28T03:37:52.307Z,20.07
2018-07-28T03:40:20.191Z,17.80
2018-07-28T03:42:48.412Z,15.80
2018-07-28T03:45:16.423Z,15.83
2018-07-28T03:47:44.639Z,19.67
2018-07-28T03:50:12.343Z,18.80
2018-07-28T03:52:40.033Z,19.30
2018-07-28T03:55:08.955Z,14.87
2018-07-28T03:57:37.367Z,16.77
2018-07-28T04:00:08.853Z,14.80
2018-07-28T04:02:36.539Z,14.37
2018-07-28T04:05:06.198Z,15.87
2018-07-28T04:07:33.928Z,16.00
2018-07-28T04:10:01.764Z,15.00
2018-07-28T04:12:29.473Z,14.57
2018-07-28T04:14:57.644Z,15.90
2018-07-28T04:17:25.342Z,14.53
2018-07-28T04:19:53.303Z,16.90
2018-07-28T04:22:21.395Z,16.10
2018-07-28T04:24:49.240Z,15.60
2018-07-28T04:27:16.919Z,16.57
2018-07-28T04:29:44.685Z,15.77
2018-07-28T04:32:12.777Z,16.40
2018-07-28T04:34:40.764Z,18.47
2018-07-28T04:37:08.467Z,16.57
2018-07-28T04:39:36.253Z,17.87
2018-07-28T04:42:07.089Z,16.20
2018-07-28T04:44:34.869Z,14.90
2018-07-28T04:47:02.579Z,21.27
2018-07-28T04:49:30.584Z,14.87
2018-07-28T04:51:59.148Z,15.10
2018-07-28T04:54:26.862Z,17.20
2018-07-28T04:56:54.601Z,20.20
2018-07-28T04:59:22.414Z,13.97
2018-07-28T05:01:50.518Z,13.87
2018-07-28T05:04:18.199Z,12.40
2018-07-28T05:06:46.128Z,12.47
2018-07-28T05:09:14.147Z,12.70
2018-07-28T05:11:41.917Z,13.30
2018-07-28T05:14:09.688Z,13.93
2018-07-28T05:16:37.633Z,11.47
2018-07-28T05:19:05.602Z,11.47
2018-07-28T05:21:33.428Z,11.07
2018-07-28T05:24:02.493Z,11.07
2018-07-28T05:26:30.409Z,10.93
2018-07-28T05:28:58.165Z,11.07
2018-07-28T05:31:26.058Z,14.00
2018-07-28T05:33:53.900Z,10.60
2018-07-28T05:36:21.867Z,10.67
2018-07-28T05:38:49.631Z,12.47
2018-07-28T05:41:17.499Z,10.73
2018-07-28T05:43:45.522Z,12.30
2018-07-28T05:46:13.272Z,10.77
2018-07-28T05:48:41.251Z,11.53
2018-07-28T05:51:09.123Z,12.27
2018-07-28T05:53:38.540Z,15.57
2018-07-28T05:56:08.371Z,12.23
2018-07-28T05:58:36.229Z,12.30
2018-07-28T06:01:04.180Z,11.30
2018-07-28T06:03:31.991Z,10.13
2018-07-28T06:05:59.678Z,11.30
2018-07-28T06:08:27.417Z,9.80
2018-07-28T06:10:55.110Z,11.07
2018-07-28T06:13:22.803Z,12.63
2018-07-28T06:15:51.191Z,10.33
2018-07-28T06:18:18.918Z,11.77
2018-07-28T06:20:46.715Z,10.00
2018-07-28T06:23:14.666Z,10.10
2018-07-28T06:25:42.977Z,8.97
2018-07-28T06:28:10.913Z,8.90
2018-07-28T06:30:38.780Z,10.37
2018-07-28T06:33:06.531Z,10.67
2018-07-28T06:35:34.387Z,8.23
2018-07-28T06:38:02.204Z,10.67
2018-07-28T06:40:29.916Z,9.03
2018-07-28T06:42:57.868Z,8.00
2018-07-28T06:45:25.558Z,8.10
2018-07-28T06:47:53.264Z,7.43
2018-07-28T06:50:21.461Z,8.33
2018-07-28T06:52:49.514Z,10.60
2018-07-28T06:55:17.335Z,8.70
2018-07-28T06:57:45.148Z,8.40
2018-07-28T07:00:12.859Z,9.47
2018-07-28T07:02:40.520Z,9.30
2018-07-28T07:05:08.838Z,7.70
2018-07-28T07:07:36.702Z,7.70
2018-07-28T07:10:05.725Z,9.67
2018-07-28T07:12:33.459Z,7.97
2018-07-28T07:15:01.131Z,17.13
2018-07-28T07:17:28.986Z,8.57
2018-07-28T07:19:56.694Z,11.40
2018-07-28T07:22:25.435Z,9.40
2018-07-28T07:24:53.552Z,8.70
2018-07-28T07:27:21.436Z,7.90
2018-07-28T07:29:49.199Z,10.37
2018-07-28T07:32:16.933Z,9.33
2018-07-28T07:34:44.611Z,12.63
2018-07-28T07:37:13.967Z,9.50
2018-07-28T07:39:42.471Z,9.70
2018-07-28T07:42:10.263Z,11.90
2018-07-28T07:44:38.318Z,11.93
2018-07-28T07:47:06.296Z,8.17
2018-07-28T07:49:34.138Z,10.63
2018-07-28T07:52:02.418Z,9.50
2018-07-28T07:54:30.361Z,7.17
2018-07-28T07:56:58.503Z,8.00
2018-07-28T07:59:26.302Z,10.23
2018-07-28T08:01:54.221Z,11.40
2018-07-28T08:04:21.977Z,10.93
2018-07-28T08:06:49.755Z,9.50
2018-07-28T08:09:17.673Z,8.50
2018-07-28T08:11:45.465Z,6.80
2018-07-28T08:14:13.259Z,9.30
2018-07-28T08:16:41.508Z,6.80
2018-07-28T08:19:09.249Z,9.60
2018-07-28T08:21:36.998Z,9.77
2018-07-28T08:24:04.905Z,8.53
2018-07-28T08:26:32.607Z,7.03
2018-07-28T08:29:00.411Z,12.83
2018-07-28T08:31:28.141Z,10.90
2018-07-28T08:33:56.071Z,9.70
2018-07-28T08:36:23.933Z,8.77
2018-07-28T08:38:51.784Z,9.03
2018-07-28T08:41:19.462Z,10.33
2018-07-28T08:43:47.218Z,15.87
2018-07-28T08:46:15.100Z,10.93
2018-07-28T08:48:43.686Z,9.33
2018-07-28T08:51:11.998Z,11.23
2018-07-28T08:53:39.931Z,10.33
2018-07-28T08:56:07.979Z,7.43
2018-07-28T08:58:35.682Z,8.10
2018-07-28T09:01:04.018Z,12.53
2018-07-28T09:03:31.752Z,9.63
2018-07-28T09:05:59.627Z,14.43
2018-07-28T09:08:27.643Z,7.13
2018-07-28T09:10:55.515Z,8.30
2018-07-28T09:13:23.362Z,13.43
2018-07-28T09:15:51.094Z,8.57
2018-07-28T09:18:18.836Z,7.07
2018-07-28T09:20:47.668Z,7.40
2018-07-28T09:23:15.408Z,7.20
2018-07-28T09:25:43.141Z,8.80
2018-07-28T09:28:11.077Z,7.63
2018-07-28T09:30:39.056Z,10.27
2018-07-28T09:33:06.736Z,7.90
2018-07-28T09:35:34.454Z,8.30
2018-07-28T09:38:02.323Z,13.23
2018-07-28T09:40:30.032Z,9.50
2018-07-28T09:42:57.775Z,10.37
2018-07-28T09:45:25.556Z,9.27
2018-07-28T09:47:53.329Z,9.50
2018-07-28T09:50:22.395Z,9.73
2018-07-28T09:52:50.267Z,9.27
2018-07-28T09:55:18.099Z,8.00
2018-07-28T09:57:45.803Z,10.00
2018-07-28T10:00:18.543Z,8.73
2018-07-28T10:02:46.284Z,8.47
2018-07-28T10:05:13.919Z,8.60
2018-07-28T10:07:41.611Z,8.07
2018-07-28T10:10:10.043Z,10.67
2018-07-28T10:12:38.150Z,7.03
2018-07-28T10:15:06.211Z,6.80
2018-07-28T10:17:34.020Z,7.83
2018-07-28T10:20:01.906Z,6.63
2018-07-28T10:22:29.655Z,6.77
2018-07-28T10:24:58.009Z,6.77
2018-07-28T10:27:25.701Z,6.77
2018-07-28T10:29:53.391Z,6.50
2018-07-28T10:32:21.135Z,6.80
2018-07-28T10:34:48.882Z,6.93
2018-07-28T10:37:16.585Z,6.53
2018-07-28T10:39:44.300Z,7.63
2018-07-28T10:42:12.776Z,6.90
2018-07-28T10:44:40.530Z,6.30
2018-07-28T10:47:08.389Z,7.70
2018-07-28T10:49:36.084Z,5.53
2018-07-28T10:52:03.783Z,5.30
2018-07-28T10:54:31.663Z,5.50
2018-07-28T10:56:59.450Z,5.33
2018-07-28T10:59:27.163Z,5.53
2018-07-28T11:01:54.839Z,4.40
2018-07-28T11:04:22.588Z,4.83
2018-07-28T11:06:50.607Z,4.97
2018-07-28T11:09:18.295Z,5.00
2018-07-28T11:11:46.239Z,4.47
2018-07-28T11:14:13.920Z,4.70
2018-07-28T11:16:42.027Z,4.27
2018-07-28T11:19:09.713Z,4.30
2018-07-28T11:21:37.415Z,4.57
2018-07-28T11:24:05.443Z,5.67
2018-07-28T11:26:33.278Z,5.77
2018-07-28T11:29:01.188Z,4.70
2018-07-28T11:31:46.559Z,4.90
2018-07-28T11:34:31.648Z,4.33
2018-07-28T11:37:16.795Z,4.63
2018-07-28T11:40:01.943Z,4.80
2018-07-28T11:42:47.208Z,5.23
2018-07-28T11:45:16.577Z,4.73
2018-07-28T11:47:44.264Z,5.00
2018-07-28T11:50:12.079Z,5.67
2018-07-28T11:52:40.657Z,6.53
2018-07-28T11:55:08.407Z,5.77
2018-07-28T11:57:36.175Z,6.73
2018-07-28T12:00:05.548Z,6.20
2018-07-28T12:02:33.301Z,5.37
2018-07-28T12:05:01.293Z,6.37
2018-07-28T12:07:29.056Z,7.90
2018-07-28T12:09:57.406Z,6.50
2018-07-28T12:12:25.187Z,5.10
2018-07-28T12:14:52.843Z,4.63
2018-07-28T12:17:20.683Z,6.20
2018-07-28T12:19:48.400Z,5.50
2018-07-28T12:22:16.143Z,7.27
2018-07-28T12:24:43.887Z,5.13
2018-07-28T12:27:11.586Z,6.47
2018-07-28T12:29:39.381Z,5.70
2018-07-28T12:32:07.515Z,5.60
2018-07-28T12:34:35.232Z,6.07
2018-07-28T12:37:03.040Z,5.83
2018-07-28T12:39:30.781Z,6.87
2018-07-28T12:41:58.619Z,6.23
2018-07-28T12:44:26.331Z,5.73
2018-07-28T12:46:54.208Z,5.63
2018-07-28T12:49:22.175Z,6.30
2018-07-28T12:51:49.971Z,11.63
2018-07-28T12:54:17.881Z,9.37
2018-07-28T12:56:46.033Z,13.50
2018-07-28T12:59:13.797Z,13.77
2018-07-28T13:01:41.566Z,9.77
2018-07-28T13:04:09.313Z,9.23
2018-07-28T13:06:37.042Z,10.37
2018-07-28T13:09:07.453Z,12.13
2018-07-28T13:11:35.688Z,11.30
2018-07-28T13:14:03.449Z,12.70
2018-07-28T13:16:31.883Z,12.27
2018-07-28T13:18:59.645Z,13.40
2018-07-28T13:21:27.436Z,12.03
2018-07-28T13:23:56.359Z,13.40
2018-07-28T13:26:24.394Z,14.57
2018-07-28T13:28:52.851Z,14.73
2018-07-28T13:31:21.764Z,12.23
2018-07-28T13:33:49.426Z,20.03
2018-07-28T13:36:17.095Z,16.53
2018-07-28T13:38:44.972Z,10.27
2018-07-28T13:41:12.686Z,10.23
2018-07-28T13:43:40.494Z,10.10
2018-07-28T13:46:08.194Z,13.93
2018-07-28T13:48:36.076Z,13.27
2018-07-28T13:51:03.815Z,12.70
2018-07-28T13:53:31.463Z,10.70
2018-07-28T13:55:59.586Z,8.33
2018-07-28T13:58:27.260Z,11.17
2018-07-28T14:00:54.989Z,11.13
2018-07-28T14:03:22.755Z,11.43
2018-07-28T14:05:50.493Z,10.43
2018-07-28T14:08:18.191Z,10.47
2018-07-28T14:10:45.926Z,10.60
2018-07-28T14:13:13.920Z,9.10
2018-07-28T14:15:41.622Z,17.10
2018-07-28T14:18:09.656Z,16.23
2018-07-28T14:20:37.736Z,19.83
2018-07-28T14:23:05.708Z,20.27
2018-07-28T14:25:33.419Z,30.57
2018-07-28T14:28:01.156Z,20.47
2018-07-28T14:30:28.861Z,10.63
2018-07-28T14:32:56.820Z,40.43
2018-07-28T14:35:24.643Z,31.77
2018-07-28T14:37:52.808Z,42.00
2018-07-28T14:40:20.820Z,51.17
2018-07-28T14:42:48.803Z,25.67
2018-07-28T14:45:16.486Z,18.80
2018-07-28T14:47:44.223Z,19.30
2018-07-28T14:50:11.967Z,16.40
2018-07-28T14:52:39.827Z,13.10
2018-07-28T14:55:07.672Z,10.70
2018-07-28T14:57:36.365Z,11.03
2018-07-28T15:00:04.762Z,17.13
2018-07-28T15:02:32.514Z,15.70
2018-07-28T15:05:00.271Z,9.77
2018-07-28T15:07:27.999Z,9.70
2018-07-28T15:09:55.679Z,9.33
2018-07-28T15:12:23.464Z,8.93
2018-07-28T15:14:51.358Z,7.73
2018-07-28T15:17:19.051Z,7.70
2018-07-28T15:19:46.711Z,9.67
2018-07-28T15:22:14.519Z,8.27
2018-07-28T15:24:42.259Z,8.03
2018-07-28T15:27:10.004Z,7.27
2018-07-28T15:29:37.832Z,8.00
2018-07-28T15:32:05.858Z,7.90
2018-07-28T15:34:33.704Z,7.93
2018-07-28T15:37:01.536Z,7.20
2018-07-28T15:39:29.154Z,7.70
2018-07-28T15:41:56.950Z,7.40
2018-07-28T15:44:24.655Z,8.33
2018-07-28T15:46:53.214Z,7.13
2018-07-28T15:49:20.978Z,6.93
2018-07-28T15:51:48.741Z,7.63
2018-07-28T15:54:16.426Z,8.00
2018-07-28T15:56:44.207Z,8.53
2018-07-28T15:59:12.051Z,13.27
2018-07-28T16:01:39.781Z,9.80
2018-07-28T16:04:07.447Z,13.43
2018-07-28T16:06:35.210Z,9.93
2018-07-28T16:09:05.151Z,9.63
2018-07-28T16:11:32.969Z,8.03
2018-07-28T16:14:00.766Z,8.87
2018-07-28T16:16:28.802Z,8.80
2018-07-28T16:18:56.532Z,8.37
2018-07-28T16:21:24.228Z,9.37
2018-07-28T16:23:52.505Z,8.57
2018-07-28T16:26:20.273Z,8.23
2018-07-28T16:28:48.002Z,9.07
2018-07-28T16:31:15.667Z,8.37
2018-07-28T16:33:43.392Z,8.83
2018-07-28T16:36:11.545Z,8.57
2018-07-28T16:38:39.397Z,9.47
2018-07-28T16:41:07.171Z,8.93
2018-07-28T16:43:34.887Z,8.97
2018-07-28T16:46:02.702Z,9.53
2018-07-28T16:48:30.547Z,9.87
2018-07-28T16:50:58.603Z,10.13
2018-07-28T16:53:26.342Z,8.90
2018-07-28T16:55:54.280Z,9.20
2018-07-28T16:58:22.262Z,9.53
2018-07-28T17:00:50.044Z,8.07
2018-07-28T17:03:17.956Z,9.37
2018-07-28T17:05:45.844Z,8.70
2018-07-28T17:08:13.947Z,9.40
2018-07-28T17:10:41.622Z,9.47
2018-07-28T17:13:09.584Z,9.07
2018-07-28T17:15:37.289Z,8.83
2018-07-28T17:18:05.276Z,9.03
2018-07-28T17:20:32.972Z,8.87
2018-07-28T17:23:00.775Z,9.27
2018-07-28T17:25:28.517Z,9.30
2018-07-28T17:27:56.234Z,9.10
2018-07-28T17:30:24.189Z,10.13
2018-07-28T17:32:51.887Z,8.83
2018-07-28T17:35:19.672Z,8.60
2018-07-28T17:37:47.419Z,9.27
2018-07-28T17:40:15.328Z,9.23
2018-07-28T17:42:43.527Z,8.73
2018-07-28T17:45:11.273Z,9.67
2018-07-28T17:47:38.934Z,8.90
2018-07-28T17:50:06.972Z,8.10
2018-07-28T17:52:34.813Z,9.67
2018-07-28T17:55:02.509Z,10.87
2018-07-28T17:57:30.497Z,10.53
2018-07-28T17:59:59.054Z,9.70
2018-07-28T18:02:26.906Z,8.50
2018-07-28T18:04:55.455Z,10.33
2018-07-28T18:07:23.153Z,9.07
2018-07-28T18:09:52.292Z,8.47
2018-07-28T18:12:20.010Z,8.67
2018-07-28T18:14:47.714Z,8.80
2018-07-28T18:17:15.474Z,11.13
2018-07-28T18:19:43.716Z,8.27
2018-07-28T18:22:11.575Z,10.73
2018-07-28T18:24:39.467Z,10.93
2018-07-28T18:27:07.190Z,9.03
2018-07-28T18:29:36.197Z,9.93
2018-07-28T18:32:04.177Z,8.70
2018-07-28T18:34:31.888Z,8.83
2018-07-28T18:36:59.660Z,8.83
2018-07-28T18:39:27.353Z,8.50
2018-07-28T18:41:55.280Z,8.30
2018-07-28T18:44:23.300Z,12.63
2018-07-28T18:46:51.322Z,9.33
2018-07-28T18:49:19.099Z,8.67
2018-07-28T18:51:46.805Z,9.97
2018-07-28T18:54:14.522Z,8.87
2018-07-28T18:56:42.670Z,8.80
2018-07-28T18:59:10.349Z,8.80
2018-07-28T19:01:38.148Z,9.03
2018-07-28T19:04:06.161Z,9.80
2018-07-28T19:06:35.184Z,9.37
2018-07-28T19:09:10.377Z,8.70
2018-07-28T19:11:38.320Z,10.30
2018-07-28T19:14:11.971Z,9.57
2018-07-28T19:16:39.994Z,10.87
2018-07-28T19:19:13.283Z,11.30
2018-07-28T19:21:41.435Z,10.37
2018-07-28T19:24:09.132Z,11.27
2018-07-28T19:26:37.014Z,10.73
2018-07-28T19:29:10.688Z,10.17
2018-07-28T19:31:38.426Z,11.07
2018-07-28T19:34:06.481Z,9.80
2018-07-28T19:36:39.917Z,9.50
2018-07-28T19:39:09.164Z,10.10
2018-07-28T19:41:42.622Z,10.57
2018-07-28T19:44:11.206Z,9.80
2018-07-28T19:46:38.831Z,16.07
2018-07-28T19:49:06.899Z,11.20
2018-07-28T19:51:35.646Z,11.07
2018-07-28T19:54:03.587Z,12.37
2018-07-28T19:56:31.338Z,10.73
2018-07-28T19:58:59.153Z,10.70
2018-07-28T20:01:27.037Z,10.70
2018-07-28T20:03:54.703Z,11.07
2018-07-28T20:06:22.367Z,10.87
2018-07-28T20:08:50.210Z,10.47
2018-07-28T20:11:17.982Z,11.93
2018-07-28T20:13:45.773Z,13.13
2018-07-28T20:16:13.838Z,12.03
2018-07-28T20:18:41.570Z,10.83
2018-07-28T20:21:09.349Z,12.63
2018-07-28T20:23:37.078Z,12.10
2018-07-28T20:26:04.969Z,10.93
2018-07-28T20:28:33.627Z,12.90
2018-07-28T20:31:01.679Z,10.90
2018-07-28T20:33:29.567Z,11.13
2018-07-28T20:35:57.439Z,12.83
2018-07-28T20:38:25.504Z,11.40
2018-07-28T20:40:53.495Z,10.97
2018-07-28T20:43:21.326Z,10.73
2018-07-28T20:45:49.314Z,12.13
2018-07-28T20:48:16.982Z,12.63
2018-07-28T20:50:45.171Z,10.73
2018-07-28T20:53:13.009Z,11.43
2018-07-28T20:55:40.931Z,13.80
2018-07-28T20:58:09.278Z,13.43
2018-07-28T21:00:37.270Z,10.87
2018-07-28T21:03:05.198Z,11.27
2018-07-28T21:05:33.008Z,11.53
2018-07-28T21:08:00.965Z,11.23
2018-07-28T21:10:28.691Z,13.33
2018-07-28T21:12:56.470Z,14.10
2018-07-28T21:15:24.202Z,12.63
2018-07-28T21:17:52.170Z,11.20
2018-07-28T21:20:20.022Z,11.83
2018-07-28T21:22:47.755Z,13.27
2018-07-28T21:25:16.439Z,14.27
2018-07-28T21:27:44.291Z,15.17
2018-07-28T21:30:11.975Z,15.17
2018-07-28T21:32:41.205Z,13.17
2018-07-28T21:35:08.867Z,12.90
2018-07-28T21:37:36.748Z,11.40
2018-07-28T21:40:04.773Z,12.83
2018-07-28T21:42:32.599Z,11.73
2018-07-28T21:45:00.609Z,12.60
2018-07-28T21:47:28.270Z,10.40
2018-07-28T21:49:56.107Z,11.53
2018-07-28T21:52:23.848Z,11.73
2018-07-28T21:54:51.735Z,11.80
2018-07-28T21:57:20.748Z,12.30
2018-07-28T21:59:48.566Z,18.03
2018-07-28T22:02:16.871Z,15.33
2018-07-28T22:04:44.725Z,14.33
2018-07-28T22:07:13.583Z,13.07
2018-07-28T22:09:41.397Z,12.97
2018-07-28T22:12:09.188Z,12.23
2018-07-28T22:14:37.341Z,12.20
2018-07-28T22:17:05.577Z,13.30
2018-07-28T22:19:33.347Z,15.13
2018-07-28T22:22:01.086Z,17.17
2018-07-28T22:24:28.840Z,14.60
2018-07-28T22:26:56.812Z,15.47
2018-07-28T22:29:24.653Z,14.30
2018-07-28T22:31:52.356Z,16.57
2018-07-28T22:34:20.163Z,14.63
2018-07-28T22:36:47.932Z,16.50
2018-07-28T22:39:16.256Z,15.00
2018-07-28T22:41:43.976Z,22.40
2018-07-28T22:44:11.763Z,17.30
2018-07-28T22:46:39.813Z,17.23
2018-07-28T22:49:07.612Z,17.97
2018-07-28T22:51:35.333Z,14.33
2018-07-28T22:54:03.167Z,12.63
2018-07-28T22:56:31.071Z,15.60
2018-07-28T22:58:59.017Z,11.87
2018-07-28T23:01:26.818Z,12.57
2018-07-28T23:03:54.811Z,9.43
2018-07-28T23:06:22.586Z,8.37
2018-07-28T23:08:50.965Z,8.33
2018-07-28T23:11:18.950Z,8.10
2018-07-28T23:13:46.699Z,7.87
2018-07-28T23:16:14.605Z,7.77
2018-07-28T23:18:42.593Z,8.53
2018-07-28T23:21:10.295Z,8.30
2018-07-28T23:23:38.648Z,9.47
2018-07-28T23:26:06.381Z,9.23
2018-07-28T23:28:34.160Z,9.60
2018-07-28T23:31:01.892Z,9.57
2018-07-28T23:33:29.649Z,9.20
2018-07-28T23:35:57.422Z,9.60
2018-07-28T23:38:25.312Z,9.33
2018-07-28T23:40:53.177Z,7.80
2018-07-28T23:43:21.272Z,8.10
2018-07-28T23:45:49.013Z,8.37
2018-07-28T23:48:16.737Z,8.50
2018-07-28T23:50:44.614Z,7.50
2018-07-28T23:53:12.492Z,9.70
2018-07-28T23:55:40.290Z,8.93
2018-07-28T23:58:08.026Z,9.20
